Time;durP1;ratioP1;P1;durP2;ratioP2;P2;SDS_P1;SDS_P2;PMS_P1;PMS_P2;Temp;Humidity;BMP_temperature;BMP_pressure;BME280_temperature;BME280_humidity;BME280_pressure;Samples;Min_cycle;Max_cycle;Signal;HPM_P1;HPM_P2
2023/10/15 00:00:25;;;;;;;4.20;2.50;;;;;;;19.47;65.07;99057.00;4368378;32;33893;-70
2023/10/15 00:02:53;;;;;;;5.20;2.67;;;;;;;19.29;65.37;99045.69;4374335;32;33915;-70
2023/10/15 00:05:22;;;;;;;5.70;2.37;;;;;;;18.81;66.41;99047.91;4372390;32;33815;-70
2023/10/15 00:07:51;;;;;;;4.82;2.47;;;;;;;19.07;65.28;99052.91;4373521;32;33606;-70
2023/10/15 00:10:21;;;;;;;2.17;1.17;;;;;;;19.19;63.97;99061.41;4365151;32;33504;-70
2023/10/15 00:12:50;;;;;;;7.47;1.02;;;;;;;19.28;62.54;99063.84;4371058;32;33923;-70
2023/10/15 00:15:19;;;;;;;2.85;1.20;;;;;;;19.36;61.33;99081.03;4369718;32;35026;-70
2023/10/15 00:17:50;;;;;;;2.53;1.20;;;;;;;19.21;61.33;99097.34;4372573;32;32832;-70
2023/10/15 00:20:20;;;;;;;2.53;1.23;;;;;;;19.36;60.90;99102.75;4374330;32;35366;-70
2023/10/15 00:22:49;;;;;;;3.22;1.75;;;;;;;19.13;62.30;99103.69;4368079;32;33803;-70
2023/10/15 00:25:20;;;;;;;7.25;1.73;;;;;;;19.40;61.79;99107.63;4372475;32;34697;-71
2023/10/15 00:27:52;;;;;;;1.67;1.30;;;;;;;18.88;63.82;99113.94;4372238;32;33384;-71
2023/10/15 00:30:21;;;;;;;3.08;1.25;;;;;;;18.96;63.96;99130.13;4372524;32;34710;-71
2023/10/15 00:32:52;;;;;;;3.92;1.40;;;;;;;19.01;63.91;99143.16;4366870;32;34092;-70
2023/10/15 00:35:20;;;;;;;3.05;1.12;;;;;;;19.10;63.86;99128.50;4364785;32;34132;-70
2023/10/15 00:40:41;;;;;;;2.42;1.02;;;;;;;18.38;66.15;99105.31;4313029;33;34811;-70
2023/10/15 00:43:10;;;;;;;1.10;0.80;;;;;;;19.02;63.59;99102.28;4308871;33;33670;-70
2023/10/15 00:45:44;;;;;;;3.03;1.17;;;;;;;18.47;65.58;99107.97;4307598;33;34941;-70
2023/10/15 00:48:24;;;;;;;2.37;1.20;;;;;;;18.41;65.55;99123.09;4306973;33;34227;-70
2023/10/15 00:50:53;;;;;;;6.68;1.58;;;;;;;18.55;65.34;99127.72;4308927;33;34127;-70
2023/10/15 00:53:25;;;;;;;1.40;0.80;;;;;;;19.16;62.23;99122.28;4305654;33;34328;-70
2023/10/15 00:55:53;;;;;;;1.98;1.20;;;;;;;18.65;63.41;99119.38;4323318;33;32682;-70
2023/10/15 00:58:31;;;;;;;1.40;0.68;;;;;;;18.94;62.68;99137.63;4321265;33;33375;-70
2023/10/15 01:01:20;;;;;;;2.08;0.88;;;;;;;18.77;62.50;99127.91;4318948;33;35074;-71
2023/10/15 01:03:50;;;;;;;3.62;0.98;;;;;;;19.08;61.11;99131.38;4325495;33;33702;-70
2023/10/15 01:06:30;;;;;;;1.37;0.77;;;;;;;19.02;61.16;99140.22;4326012;33;33654;-70
2023/10/15 01:09:09;;;;;;;0.75;0.50;;;;;;;18.77;61.35;99152.31;4322468;33;33569;-70
2023/10/15 01:11:44;;;;;;;1.95;0.52;;;;;;;18.77;61.36;99145.03;4328814;33;33734;-70
2023/10/15 01:14:13;;;;;;;2.95;0.95;;;;;;;18.71;61.34;99151.12;4319820;33;33825;-70
2023/10/15 01:16:41;;;;;;;2.35;0.75;;;;;;;17.98;63.42;99143.47;4326431;32;35025;-70
2023/10/15 01:21:47;;;;;;;1.20;0.73;;;;;;;18.61;61.66;99140.53;4368101;32;34064;-70
2023/10/15 01:24:19;;;;;;;0.80;0.52;;;;;;;18.04;62.92;99146.34;4368969;32;34291;-70
2023/10/15 01:27:09;;;;;;;0.80;0.40;;;;;;;18.53;61.61;99131.66;4374723;32;33664;-70
2023/10/15 01:29:44;;;;;;;1.17;0.60;;;;;;;18.08;62.40;99136.00;4367069;32;33421;-70
2023/10/15 01:35:01;;;;;;;1.25;0.85;;;;;;;18.70;60.83;99148.63;4328831;33;34943;-70
2023/10/15 01:37:30;;;;;;;0.57;0.57;;;;;;;18.51;62.16;99155.37;4326846;33;33684;-70
2023/10/15 01:40:16;;;;;;;2.65;0.88;;;;;;;18.47;62.52;99159.47;4328214;33;34193;-70
2023/10/15 01:42:46;;;;;;;1.23;0.50;;;;;;;18.15;63.48;99150.50;4333645;33;34007;-70
2023/10/15 01:45:17;;;;;;;0.62;0.50;;;;;;;18.69;62.06;99155.91;4335333;33;33742;-70
2023/10/15 01:50:23;;;;;;;10.23;0.90;;;;;;;18.87;61.95;99154.78;4333658;33;34223;-70
2023/10/15 01:53:01;;;;;;;0.65;0.55;;;;;;;18.92;62.17;99166.78;4327321;33;33587;-69
2023/10/15 01:55:30;;;;;;;0.50;0.50;;;;;;;19.18;60.93;99179.09;4327455;33;34621;-69
2023/10/15 01:58:01;;;;;;;0.47;0.35;;;;;;;19.21;60.63;99173.31;4327043;33;33597;-69
2023/10/15 02:03:10;;;;;;;0.70;0.32;;;;;;;19.28;61.01;99163.37;4323946;33;34646;-69
2023/10/15 02:05:43;;;;;;;0.70;0.40;;;;;;;19.04;61.35;99157.19;4328379;33;34153;-69
2023/10/15 02:08:13;;;;;;;1.70;0.70;;;;;;;18.79;62.69;99167.38;4331129;32;33061;-69
2023/10/15 02:10:46;;;;;;;0.55;0.47;;;;;;;19.25;60.88;99156.44;4327643;33;32803;-69
2023/10/15 02:13:16;;;;;;;0.43;0.30;;;;;;;19.30;60.77;99162.19;4365015;32;33472;-69
2023/10/15 02:15:44;;;;;;;0.68;0.50;;;;;;;19.15;61.40;99160.47;4370522;32;33607;-69
2023/10/15 02:18:17;;;;;;;0.73;0.43;;;;;;;19.16;61.57;99154.00;4375676;32;34135;-69
2023/10/15 02:21:00;;;;;;;1.90;0.85;;;;;;;19.02;61.88;99151.09;4369698;32;34336;-69
2023/10/15 02:23:32;;;;;;;0.65;0.35;;;;;;;19.17;61.48;99155.72;4373136;32;33540;-69
2023/10/15 02:26:00;;;;;;;0.55;0.40;;;;;;;18.84;62.58;99156.84;4361891;32;34820;-70
2023/10/15 02:28:32;;;;;;;1.35;0.45;;;;;;;19.09;61.41;99156.63;4368346;32;33736;-69
2023/10/15 02:33:35;;;;;;;2.95;1.12;;;;;;;18.41;63.75;99166.44;4374308;32;34325;-70
2023/10/15 02:36:09;;;;;;;2.65;1.17;;;;;;;18.13;64.95;99156.09;4374474;32;33841;-69
2023/10/15 02:38:48;;;;;;;1.60;0.80;;;;;;;18.31;64.30;99165.81;4374999;32;34384;-69
2023/10/15 02:41:17;;;;;;;0.73;0.52;;;;;;;18.06;65.54;99175.94;4371571;32;34471;-70
2023/10/15 02:43:54;;;;;;;0.55;0.40;;;;;;;18.70;63.37;99171.16;4372718;32;34947;-69
2023/10/15 02:46:29;;;;;;;1.20;0.60;;;;;;;18.56;63.73;99177.34;4371566;32;34071;-69
2023/10/15 02:48:57;;;;;;;1.10;0.62;;;;;;;18.07;65.54;99183.03;4374405;32;34024;-70
2023/10/15 02:51:24;;;;;;;0.62;0.62;;;;;;;18.55;63.79;99181.91;4376096;32;33072;-70
2023/10/15 02:53:54;;;;;;;0.43;0.30;;;;;;;18.54;63.69;99185.66;4369550;32;33550;-69
2023/10/15 02:56:23;;;;;;;3.00;1.27;;;;;;;18.59;63.30;99193.25;4371458;32;35445;-69
2023/10/15 02:58:54;;;;;;;1.65;1.00;;;;;;;18.29;64.53;99205.78;4366921;32;33852;-69
2023/10/15 03:01:23;;;;;;;2.85;1.30;;;;;;;18.60;63.03;99203.06;4367167;32;33071;-69
2023/10/15 03:03:54;;;;;;;1.65;0.65;;;;;;;18.68;62.99;99202.16;4361627;32;32446;-69
2023/10/15 03:06:34;;;;;;;2.20;1.15;;;;;;;18.38;63.49;99210.13;4370586;32;34058;-70
2023/10/15 03:09:11;;;;;;;2.30;1.33;;;;;;;18.61;62.58;99208.28;4365790;32;33815;-69
2023/10/15 03:11:39;;;;;;;3.00;1.35;;;;;;;18.11;64.50;99203.34;4370970;32;33219;-69
2023/10/15 03:14:06;;;;;;;3.83;1.65;;;;;;;18.41;63.13;99189.97;4373301;32;34715;-70
2023/10/15 03:16:35;;;;;;;2.03;1.27;;;;;;;17.95;64.23;99181.75;4366934;32;33861;-69
2023/10/15 03:19:24;;;;;;;1.17;0.80;;;;;;;18.01;64.28;99170.19;4372677;32;33846;-69
2023/10/15 03:21:59;;;;;;;4.10;1.83;;;;;;;18.09;63.81;99179.13;4370056;32;33226;-68
2023/10/15 03:24:32;;;;;;;3.33;1.15;;;;;;;17.71;65.05;99178.06;4373079;32;33819;-69
2023/10/15 03:27:00;;;;;;;2.53;0.55;;;;;;;17.76;64.59;99183.81;4369280;32;34368;-69
2023/10/15 03:29:29;;;;;;;1.00;0.68;;;;;;;17.93;64.41;99179.22;4366105;32;34748;-70
2023/10/15 03:32:12;;;;;;;4.00;2.00;;;;;;;18.32;63.11;99176.47;4367191;32;34444;-69
2023/10/15 03:34:47;;;;;;;1.58;0.98;;;;;;;18.27;62.82;99181.59;4362534;32;34351;-71
2023/10/15 03:37:15;;;;;;;3.43;1.67;;;;;;;18.34;62.86;99193.41;4365362;32;33567;-69
2023/10/15 03:44:44;;;;;;;0.62;0.52;;;;;;;18.19;63.85;99183.50;4368333;32;33892;-68
2023/10/15 03:47:14;;;;;;;0.65;0.47;;;;;;;17.99;63.64;99194.75;4372154;32;34056;-68
2023/10/15 03:49:44;;;;;;;1.12;0.85;;;;;;;17.90;64.21;99196.66;4370102;32;33717;-67
2023/10/15 03:52:22;;;;;;;5.85;1.98;;;;;;;17.80;63.80;99195.16;4371237;32;33347;-68
2023/10/15 03:54:51;;;;;;;0.98;0.75;;;;;;;17.30;65.11;99188.16;4366432;32;35077;-68
2023/10/15 03:57:28;;;;;;;3.12;1.62;;;;;;;16.87;66.87;99196.47;4373614;32;33885;-67
2023/10/15 03:59:56;;;;;;;1.98;0.93;;;;;;;17.10;65.06;99179.56;4373982;32;34083;-71
2023/10/15 04:02:39;;;;;;;2.62;1.10;;;;;;;16.87;65.83;99177.53;4370170;32;34418;-67
2023/10/15 04:05:12;;;;;;;2.28;1.42;;;;;;;17.55;63.46;99173.56;4360956;32;34602;-68
2023/10/15 04:07:49;;;;;;;3.35;0.90;;;;;;;17.27;63.18;99167.72;4357830;32;34298;-68
2023/10/15 04:10:23;;;;;;;1.23;0.88;;;;;;;17.33;62.55;99168.88;4374674;32;33715;-68
2023/10/15 04:12:52;;;;;;;4.45;1.05;;;;;;;17.30;62.35;99169.22;4369411;32;34121;-69
2023/10/15 04:15:22;;;;;;;1.35;0.93;;;;;;;17.16;61.98;99168.91;4363914;32;33831;-69
2023/10/15 04:17:51;;;;;;;2.72;1.30;;;;;;;17.56;60.46;99171.69;4365772;32;33714;-67
2023/10/15 04:20:35;;;;;;;4.40;2.05;;;;;;;17.61;59.85;99180.97;4375194;32;35086;-67
2023/10/15 04:23:03;;;;;;;2.53;1.15;;;;;;;17.17;61.44;99186.84;4368736;32;33150;-67
2023/10/15 04:25:32;;;;;;;0.88;0.80;;;;;;;17.48;59.81;99194.22;4361978;32;34458;-67
2023/10/15 04:28:14;;;;;;;2.53;0.90;;;;;;;17.98;58.00;99205.75;4373870;32;35202;-67
2023/10/15 04:30:42;;;;;;;1.37;0.98;;;;;;;17.28;60.68;99209.13;4374012;32;33135;-66
2023/10/15 04:33:13;;;;;;;2.00;1.20;;;;;;;16.77;60.00;99212.00;4372150;32;33218;-67
2023/10/15 04:35:41;;;;;;;3.35;1.37;;;;;;;16.59;60.51;99213.94;4368510;32;34987;-67
2023/10/15 04:38:15;;;;;;;2.00;1.05;;;;;;;16.82;60.37;99203.38;4377555;32;35199;-67
2023/10/15 04:43:26;;;;;;;2.40;1.37;;;;;;;15.94;62.48;99201.09;4367188;32;33157;-67
2023/10/15 04:45:56;;;;;;;1.20;0.80;;;;;;;16.18;61.31;99189.53;4374154;32;35139;-67
2023/10/15 04:48:30;;;;;;;1.65;0.95;;;;;;;16.40;60.55;99188.91;4369706;32;33989;-68
2023/10/15 04:53:52;;;;;;;1.33;0.90;;;;;;;16.71;59.36;99212.62;4344807;32;33590;-67
2023/10/15 04:56:23;;;;;;;1.20;0.75;;;;;;;16.15;61.49;99216.87;4340446;32;33466;-67
2023/10/15 04:58:51;;;;;;;0.70;0.60;;;;;;;16.76;58.74;99221.13;4343519;33;35076;-67
2023/10/15 05:01:18;;;;;;;0.85;0.82;;;;;;;16.89;57.87;99231.44;4334675;33;34573;-67
2023/10/15 05:03:46;;;;;;;1.42;0.85;;;;;;;16.73;59.01;99252.00;4336600;33;32783;-67
2023/10/15 05:06:14;;;;;;;6.07;0.98;;;;;;;16.80;57.96;99268.41;4342893;33;34284;-68
2023/10/15 05:08:42;;;;;;;3.75;1.23;;;;;;;17.14;57.13;99262.88;4334057;32;34269;-67
2023/10/15 05:11:10;;;;;;;6.87;1.52;;;;;;;17.25;57.14;99263.56;4342361;33;34953;-68
2023/10/15 05:13:37;;;;;;;5.60;1.80;;;;;;;16.90;58.42;99263.69;4333292;33;33360;-68
2023/10/15 05:16:05;;;;;;;3.15;1.23;;;;;;;16.81;58.02;99253.87;4336734;33;33908;-69
2023/10/15 05:18:33;;;;;;;1.48;0.95;;;;;;;16.10;60.22;99251.63;4341717;32;33781;-71
2023/10/15 05:21:00;;;;;;;0.75;0.62;;;;;;;16.60;58.04;99250.78;4333453;33;33507;-71
2023/10/15 05:23:28;;;;;;;1.87;0.70;;;;;;;16.06;58.61;99243.84;4337564;33;33122;-68
2023/10/15 05:25:56;;;;;;;1.65;1.02;;;;;;;16.57;58.23;99243.00;4339270;33;35275;-67
2023/10/15 05:28:26;;;;;;;3.10;1.23;;;;;;;16.39;58.89;99252.06;4330729;33;34545;-67
2023/10/15 05:30:54;;;;;;;2.70;1.40;;;;;;;16.22;59.89;99261.97;4343459;32;32404;-67
2023/10/15 05:33:22;;;;;;;1.40;0.80;;;;;;;16.83;57.75;99273.50;4362163;32;33458;-69
2023/10/15 05:35:49;;;;;;;0.62;0.50;;;;;;;16.89;57.35;99282.78;4361492;32;33454;-70
2023/10/15 05:38:17;;;;;;;3.65;1.52;;;;;;;17.05;56.16;99271.16;4370961;32;33868;-68
2023/10/15 05:40:45;;;;;;;8.45;1.20;;;;;;;17.03;55.90;99271.31;4367694;32;34189;-68
2023/10/15 05:43:13;;;;;;;2.65;1.75;;;;;;;16.92;57.06;99277.06;4371773;32;34769;-68
2023/10/15 05:45:41;;;;;;;1.17;0.70;;;;;;;16.96;56.34;99292.75;4365304;32;34602;-68
2023/10/15 05:48:09;;;;;;;3.50;1.40;;;;;;;16.64;56.68;99287.25;4369648;32;34048;-68
2023/10/15 05:50:37;;;;;;;3.83;1.45;;;;;;;15.93;58.06;99289.31;4362782;32;34911;-68
2023/10/15 05:53:06;;;;;;;4.07;1.20;;;;;;;15.84;59.12;99288.44;4369181;32;34198;-68
2023/10/15 05:55:34;;;;;;;2.65;1.65;;;;;;;16.49;57.59;99306.78;4366373;32;35051;-68
2023/10/15 05:58:02;;;;;;;1.58;1.00;;;;;;;16.15;58.22;99311.38;4370987;32;33876;-68
2023/10/15 06:00:29;;;;;;;0.75;0.62;;;;;;;16.05;58.69;99333.94;4374746;32;32389;-68
2023/10/15 06:02:58;;;;;;;3.12;1.25;;;;;;;16.72;56.82;99338.59;4355897;32;32932;-68
2023/10/15 06:05:28;;;;;;;0.88;0.60;;;;;;;16.29;58.23;99343.16;4373175;32;33403;-68
2023/10/15 06:07:56;;;;;;;3.42;0.80;;;;;;;16.68;57.13;99342.66;4370021;32;34131;-68
2023/10/15 06:10:23;;;;;;;0.85;0.52;;;;;;;16.43;57.08;99345.25;4369122;32;34624;-68
2023/10/15 06:12:51;;;;;;;2.83;1.05;;;;;;;15.65;60.00;99345.25;4370858;32;33505;-68
2023/10/15 06:15:18;;;;;;;1.50;1.05;;;;;;;15.82;58.63;99340.84;4371776;32;34400;-68
2023/10/15 06:17:51;;;;;;;8.57;1.65;;;;;;;15.44;60.60;99344.75;4359864;32;33977;-68
2023/10/15 06:20:19;;;;;;;7.85;2.83;;;;;;;15.38;60.64;99343.53;4370910;32;34084;-68
2023/10/15 06:22:49;;;;;;;1.55;1.20;;;;;;;16.05;58.75;99346.56;4371585;32;34526;-68
2023/10/15 06:25:17;;;;;;;0.55;0.55;;;;;;;15.66;60.28;99343.41;4374890;32;34011;-68
2023/10/15 06:27:45;;;;;;;1.62;0.68;;;;;;;16.03;59.27;99341.34;4352013;32;33589;-68
2023/10/15 06:30:16;;;;;;;1.90;0.82;;;;;;;15.75;60.29;99331.69;4360695;32;33931;-68
2023/10/15 06:32:50;;;;;;;8.27;1.02;;;;;;;14.99;61.28;99324.97;4373372;32;33039;-68
2023/10/15 06:35:22;;;;;;;2.47;1.73;;;;;;;15.54;60.54;99326.66;4363826;32;34979;-68
2023/10/15 06:37:57;;;;;;;2.17;0.90;;;;;;;16.17;58.36;99317.44;4370603;32;33525;-68
2023/10/15 06:40:28;;;;;;;1.45;0.90;;;;;;;15.54;60.25;99332.88;4365240;32;34016;-68
2023/10/15 06:43:03;;;;;;;5.25;1.15;;;;;;;16.01;58.58;99324.44;4361303;32;34078;-68
2023/10/15 06:45:34;;;;;;;2.95;2.12;;;;;;;15.98;58.86;99329.31;4373268;32;35026;-68
2023/10/15 06:48:02;;;;;;;3.05;0.95;;;;;;;15.57;60.89;99343.34;4374365;32;33740;-68
2023/10/15 06:50:30;;;;;;;1.67;1.00;;;;;;;15.74;59.34;99341.66;4374081;32;35420;-68
2023/10/15 06:53:01;;;;;;;1.40;0.82;;;;;;;14.88;61.80;99325.19;4369099;32;33113;-69
2023/10/15 06:55:31;;;;;;;1.65;0.85;;;;;;;15.19;61.17;99314.87;4360087;32;33727;-68
2023/10/15 06:57:59;;;;;;;1.85;1.12;;;;;;;14.94;61.23;99313.78;4360129;32;35592;-68
2023/10/15 07:00:28;;;;;;;2.67;1.62;;;;;;;14.93;61.08;99308.53;4367366;32;34096;-68
2023/10/15 07:02:56;;;;;;;1.35;0.85;;;;;;;15.24;61.07;99303.62;4375370;32;34410;-68
2023/10/15 07:05:25;;;;;;;2.75;1.33;;;;;;;14.46;63.38;99304.16;4373928;32;34464;-68
2023/10/15 07:07:56;;;;;;;4.18;0.65;;;;;;;14.16;62.54;99302.59;4372928;32;35341;-68
2023/10/15 07:10:25;;;;;;;2.60;1.10;;;;;;;15.08;61.05;99294.38;4365627;32;35524;-68
2023/10/15 07:12:56;;;;;;;2.00;1.00;;;;;;;15.11;60.53;99283.28;4372291;32;33049;-68
2023/10/15 07:15:24;;;;;;;1.00;0.85;;;;;;;14.80;60.51;99299.00;4370181;32;34072;-68
2023/10/15 07:17:53;;;;;;;4.37;0.95;;;;;;;15.55;58.66;99331.88;4370016;32;34127;-68
2023/10/15 07:20:24;;;;;;;2.10;0.95;;;;;;;15.53;58.17;99360.84;4373897;32;32405;-68
2023/10/15 07:22:54;;;;;;;0.88;0.62;;;;;;;15.36;58.82;99372.50;4372733;32;33302;-68
2023/10/15 07:25:24;;;;;;;1.42;0.85;;;;;;;15.32;58.42;99390.00;4375091;32;33578;-68
2023/10/15 07:27:57;;;;;;;1.62;0.98;;;;;;;15.33;59.14;99388.97;4374435;32;35216;-68
2023/10/15 07:30:26;;;;;;;0.98;0.57;;;;;;;15.37;58.47;99396.59;4368834;32;33946;-68
2023/10/15 07:32:57;;;;;;;2.00;1.37;;;;;;;15.37;59.18;99384.97;4367968;32;33543;-68
2023/10/15 07:35:27;;;;;;;1.25;0.82;;;;;;;14.94;60.04;99405.41;4376557;32;33745;-68
2023/10/15 07:37:56;;;;;;;5.28;1.00;;;;;;;15.30;59.13;99398.22;4374704;32;33960;-68
2023/10/15 07:40:27;;;;;;;0.52;0.52;;;;;;;15.63;57.75;99403.06;4376453;32;34480;-69
2023/10/15 07:42:59;;;;;;;3.10;0.65;;;;;;;15.46;58.11;99405.63;4373154;32;33966;-69
2023/10/15 07:45:32;;;;;;;3.00;1.23;;;;;;;15.75;58.08;99389.22;4370731;32;34702;-70
2023/10/15 07:48:02;;;;;;;7.43;0.95;;;;;;;15.58;58.58;99381.97;4367795;32;33964;-70
2023/10/15 07:50:32;;;;;;;2.92;1.20;;;;;;;15.99;57.33;99396.66;4369952;32;33553;-69
2023/10/15 07:53:00;;;;;;;0.62;0.55;;;;;;;16.01;56.75;99385.69;4372639;32;33204;-69
2023/10/15 07:55:28;;;;;;;11.57;1.52;;;;;;;15.88;57.73;99382.56;4372540;32;33488;-69
2023/10/15 07:57:57;;;;;;;4.78;1.37;;;;;;;16.06;57.36;99381.50;4373069;32;33744;-70
2023/10/15 08:00:33;;;;;;;1.83;1.27;;;;;;;15.87;56.79;99381.72;4370198;32;33476;-70
2023/10/15 08:03:02;;;;;;;2.37;1.75;;;;;;;16.23;56.88;99373.50;4365161;32;34381;-70
2023/10/15 08:05:33;;;;;;;1.58;1.25;;;;;;;16.40;56.54;99377.16;4367852;32;33720;-69
2023/10/15 08:08:04;;;;;;;3.85;2.12;;;;;;;16.37;55.70;99369.34;4370042;32;35283;-69
2023/10/15 08:10:37;;;;;;;3.50;1.45;;;;;;;16.62;55.13;99364.91;4365414;32;33843;-69
2023/10/15 08:13:06;;;;;;;1.45;0.77;;;;;;;16.73;55.51;99372.75;4361981;32;33611;-70
2023/10/15 08:15:35;;;;;;;3.67;1.48;;;;;;;16.73;55.54;99373.59;4365138;32;33690;-69
2023/10/15 08:18:03;;;;;;;2.05;0.98;;;;;;;16.80;55.70;99378.38;4364051;32;33901;-70
2023/10/15 08:20:34;;;;;;;1.30;0.45;;;;;;;16.04;57.74;99380.81;4365653;32;34865;-70
2023/10/15 08:23:02;;;;;;;1.27;0.82;;;;;;;16.82;54.70;99387.16;4365489;32;33233;-69
2023/10/15 08:25:33;;;;;;;5.47;0.80;;;;;;;16.71;55.13;99375.59;4363184;32;33667;-69
2023/10/15 08:28:02;;;;;;;3.53;0.82;;;;;;;16.55;54.62;99370.13;4364979;32;32407;-69
2023/10/15 08:30:34;;;;;;;3.30;1.08;;;;;;;16.95;53.16;99364.06;4356742;32;34665;-70
2023/10/15 08:33:03;;;;;;;0.37;0.30;;;;;;;16.96;53.19;99373.88;4372401;32;32921;-71
2023/10/15 08:35:31;;;;;;;2.08;0.85;;;;;;;16.38;54.40;99371.91;4377986;32;34823;-69
2023/10/15 08:38:00;;;;;;;7.37;1.87;;;;;;;16.29;54.08;99372.88;4374555;32;34111;-69
2023/10/15 08:40:30;;;;;;;4.68;1.58;;;;;;;16.12;54.09;99380.03;4369189;32;33165;-70
2023/10/15 08:43:07;;;;;;;1.27;0.98;;;;;;;15.89;54.16;99392.34;4353230;32;33021;-70
2023/10/15 08:45:35;;;;;;;1.75;0.82;;;;;;;15.94;54.81;99395.44;4363985;32;34387;-72
2023/10/15 08:48:05;;;;;;;1.23;0.90;;;;;;;16.34;53.45;99394.88;4363140;32;34105;-72
2023/10/15 08:50:36;;;;;;;1.58;0.85;;;;;;;15.58;55.08;99390.91;4361568;32;33922;-70
2023/10/15 08:53:06;;;;;;;2.60;1.15;;;;;;;15.99;54.76;99393.13;4364497;32;31986;-70
2023/10/15 08:55:36;;;;;;;3.03;1.60;;;;;;;15.94;54.48;99392.72;4364375;32;34511;-70
2023/10/15 08:58:06;;;;;;;1.48;0.85;;;;;;;16.19;53.79;99391.03;4373044;32;33903;-70
2023/10/15 09:00:39;;;;;;;1.52;0.62;;;;;;;15.93;54.62;99388.34;4375817;32;35135;-70
2023/10/15 09:03:12;;;;;;;0.68;0.52;;;;;;;16.73;52.59;99379.00;4374442;32;33559;-70
2023/10/15 09:05:42;;;;;;;8.98;2.58;;;;;;;16.56;53.03;99376.37;4372150;32;32040;-70
2023/10/15 09:08:13;;;;;;;4.30;1.33;;;;;;;16.15;54.01;99359.97;4367021;32;34159;-70
2023/10/15 09:10:41;;;;;;;1.83;1.08;;;;;;;16.67;53.01;99368.84;4365304;32;34766;-70
2023/10/15 09:13:15;;;;;;;16.10;1.80;;;;;;;16.25;53.09;99366.94;4363478;32;33319;-70
2023/10/15 09:15:50;;;;;;;4.40;0.95;;;;;;;16.60;53.88;99366.97;4364868;32;33242;-70
2023/10/15 09:18:17;;;;;;;3.03;1.55;;;;;;;16.58;52.94;99360.87;4348674;32;34533;-70
2023/10/15 09:20:51;;;;;;;2.47;1.10;;;;;;;16.08;53.60;99357.03;4363227;32;32568;-70
2023/10/15 09:23:23;;;;;;;1.40;0.88;;;;;;;16.72;52.25;99360.22;4361744;32;33864;-70
2023/10/15 09:25:55;;;;;;;1.25;1.12;;;;;;;17.17;51.19;99377.97;4365777;32;33663;-70
2023/10/15 09:28:27;;;;;;;1.33;1.00;;;;;;;17.18;51.64;99377.81;4362887;32;33660;-70
2023/10/15 09:31:09;;;;;;;2.17;0.95;;;;;;;17.07;51.78;99386.22;4360446;32;33258;-70
2023/10/15 09:33:38;;;;;;;3.72;1.83;;;;;;;16.47;52.83;99389.88;4361062;32;34294;-70
2023/10/15 09:36:07;;;;;;;4.47;1.30;;;;;;;16.82;51.50;99379.03;4364609;32;35015;-70
2023/10/15 09:38:35;;;;;;;1.10;0.77;;;;;;;16.73;51.34;99372.75;4362886;32;33742;-71
2023/10/15 09:41:05;;;;;;;2.22;0.90;;;;;;;16.82;51.22;99381.75;4363415;32;32190;-70
2023/10/15 09:43:36;;;;;;;5.30;2.40;;;;;;;16.62;52.26;99378.44;4362608;32;33181;-70
2023/10/15 09:46:06;;;;;;;3.60;1.75;;;;;;;16.87;51.80;99377.56;4365479;32;33218;-70
2023/10/15 09:48:37;;;;;;;3.78;0.80;;;;;;;16.93;49.85;99382.31;4365240;32;33837;-70
2023/10/15 09:51:07;;;;;;;4.72;1.35;;;;;;;15.93;51.55;99391.03;4364878;32;35000;-70
2023/10/15 09:53:37;;;;;;;1.75;1.15;;;;;;;16.14;52.07;99396.06;4364039;32;34183;-70
2023/10/15 09:56:08;;;;;;;1.65;1.08;;;;;;;15.90;53.20;99394.91;4362092;32;34229;-70
2023/10/15 09:58:37;;;;;;;6.55;1.65;;;;;;;16.12;51.91;99395.41;4347078;32;35051;-71
2023/10/15 10:01:25;;;;;;;0.73;0.50;;;;;;;16.27;51.11;99401.88;4350918;32;33545;-70
2023/10/15 10:03:59;;;;;;;1.87;0.93;;;;;;;15.94;51.56;99411.63;4355650;32;34129;-70
2023/10/15 10:07:04;;;;;;;1.50;0.85;;;;;;;16.33;51.26;99405.81;4363381;32;33670;-71
2023/10/15 10:09:42;;;;;;;1.90;0.95;;;;;;;16.53;50.16;99399.16;4363440;32;35004;-70
2023/10/15 10:12:15;;;;;;;4.75;1.60;;;;;;;16.37;51.03;99399.94;4362594;32;32834;-70
2023/10/15 10:15:15;;;;;;;7.45;2.12;;;;;;;16.52;49.70;99400.16;4363405;32;32104;-71
2023/10/15 10:17:43;;;;;;;3.00;1.05;;;;;;;15.89;50.40;99400.44;4332525;32;33918;-70
2023/10/15 10:20:13;;;;;;;0.55;0.40;;;;;;;16.47;47.61;99406.06;4342309;32;34013;-70
2023/10/15 10:22:41;;;;;;;0.88;0.77;;;;;;;16.40;48.28;99404.16;4343657;32;33365;-71
2023/10/15 10:25:45;;;;;;;0.43;0.43;;;;;;;16.58;48.43;99406.78;4337469;32;32729;-70
2023/10/15 10:28:15;;;;;;;3.97;1.42;;;;;;;15.89;49.67;99408.53;4338781;32;33645;-71
2023/10/15 10:30:52;;;;;;;4.35;1.85;;;;;;;15.85;51.14;99405.31;4336521;32;33792;-70
2023/10/15 10:33:37;;;;;;;1.92;0.88;;;;;;;16.31;49.09;99397.88;4337906;32;33549;-70
2023/10/15 10:36:18;;;;;;;11.05;2.05;;;;;;;16.54;48.14;99404.41;4335281;32;33861;-70
2023/10/15 10:39:11;;;;;;;1.30;1.20;;;;;;;16.05;49.62;99405.94;4342364;32;34437;-70
2023/10/15 10:41:40;;;;;;;3.42;1.73;;;;;;;16.67;47.51;99403.97;4337835;32;34156;-70
2023/10/15 10:44:10;;;;;;;2.05;1.20;;;;;;;16.21;48.85;99403.38;4339425;32;33401;-70
2023/10/15 10:46:54;;;;;;;;;;;;;;;16.54;47.85;99403.56;4340701;32;33929;-70
2023/10/15 10:49:30;;;;;;;7.45;2.90;;;;;;;16.35;48.78;99407.34;4360671;32;35161;-69
2023/10/15 10:52:14;;;;;;;1.33;0.80;;;;;;;16.11;49.13;99410.72;4365956;32;34911;-69
2023/10/15 10:54:45;;;;;;;2.20;1.35;;;;;;;15.53;50.69;99412.09;4362770;32;34021;-70
2023/10/15 10:57:18;;;;;;;5.18;1.95;;;;;;;16.33;48.64;99405.81;4364200;32;33618;-69
2023/10/15 10:59:46;;;;;;;2.85;0.85;;;;;;;16.49;47.65;99414.00;4365978;32;34669;-71
2023/10/15 11:02:15;;;;;;;1.87;0.82;;;;;;;16.11;48.12;99404.47;4368767;32;33434;-70
2023/10/15 11:04:43;;;;;;;5.28;2.40;;;;;;;16.64;46.64;99401.59;4370829;32;34191;-70
2023/10/15 11:07:13;;;;;;;2.20;1.27;;;;;;;16.08;48.49;99411.03;4375554;32;34227;-71
2023/10/15 11:09:41;;;;;;;3.92;0.85;;;;;;;16.48;48.37;99421.25;4376094;32;34017;-71
2023/10/15 11:12:16;;;;;;;7.37;1.25;;;;;;;16.63;48.09;99423.34;4371065;32;33709;-70
2023/10/15 11:14:43;;;;;;;;;;;;;;;15.88;49.49;99418.50;4362809;32;33890;-71
2023/10/15 11:17:11;;;;;;;7.47;1.40;;;;;;;15.60;49.37;99417.69;4367896;32;33231;-71
2023/10/15 11:19:39;;;;;;;9.90;1.05;;;;;;;15.75;49.17;99405.41;4374707;32;34789;-70
2023/10/15 11:22:08;;;;;;;2.62;1.65;;;;;;;16.15;47.66;99405.87;4374958;32;34147;-70
2023/10/15 11:24:36;;;;;;;4.78;1.83;;;;;;;16.63;47.82;99404.44;4367130;32;33590;-71
2023/10/15 11:27:07;;;;;;;2.15;1.15;;;;;;;16.70;46.75;99402.81;4374548;32;33145;-70
2023/10/15 11:29:35;;;;;;;2.22;1.25;;;;;;;16.54;46.89;99395.47;4374830;32;33885;-71
2023/10/15 11:32:06;;;;;;;4.28;1.02;;;;;;;16.10;47.64;99402.78;4327993;33;33538;-71
2023/10/15 11:34:35;;;;;;;9.15;1.67;;;;;;;16.72;46.62;99406.16;4295397;33;34008;-70
2023/10/15 11:37:03;;;;;;;10.25;1.40;;;;;;;16.84;46.69;99407.59;4292780;33;33391;-70
2023/10/15 11:39:37;;;;;;;4.07;2.30;;;;;;;16.77;47.17;99406.56;4291021;33;32306;-70
2023/10/15 11:42:07;;;;;;;1.30;0.60;;;;;;;16.67;48.33;99413.94;4290427;33;34437;-69
2023/10/15 11:44:43;;;;;;;1.98;0.95;;;;;;;16.80;47.42;99414.34;4289651;33;34533;-70
2023/10/15 11:47:15;;;;;;;6.62;1.15;;;;;;;15.92;48.85;99417.19;4291460;33;33064;-69
2023/10/15 11:49:45;;;;;;;3.53;1.05;;;;;;;16.46;48.18;99407.06;4290073;33;34634;-70
2023/10/15 11:52:14;;;;;;;4.32;1.85;;;;;;;16.51;46.48;99407.44;4290657;33;33569;-70
2023/10/15 11:54:43;;;;;;;4.72;1.40;;;;;;;16.12;48.43;99408.91;4290734;33;33640;-71
2023/10/15 11:57:16;;;;;;;10.68;3.53;;;;;;;16.79;46.26;99398.28;4292799;33;34440;-70
2023/10/15 11:59:48;;;;;;;0.52;0.40;;;;;;;16.51;47.30;99390.38;4291798;33;33326;-71
2023/10/15 12:02:19;;;;;;;0.98;0.85;;;;;;;16.34;45.16;99394.00;4285999;33;32237;-71
2023/10/15 12:04:51;;;;;;;4.50;1.05;;;;;;;16.09;47.32;99387.62;4321852;32;34787;-71
2023/10/15 12:07:22;;;;;;;1.55;1.00;;;;;;;16.64;46.29;99398.03;4363387;32;34439;-70
2023/10/15 12:09:50;;;;;;;1.65;0.82;;;;;;;16.80;46.12;99400.84;4365081;32;33922;-71
2023/10/15 12:12:18;;;;;;;3.95;1.17;;;;;;;16.66;45.11;99401.41;4361474;32;34026;-71
2023/10/15 12:14:46;;;;;;;4.78;1.48;;;;;;;16.26;44.99;99403.75;4363122;32;33606;-70
2023/10/15 12:17:15;;;;;;;2.87;1.20;;;;;;;16.80;44.51;99410.81;4366269;32;32316;-70
2023/10/15 12:19:44;;;;;;;3.90;2.03;;;;;;;16.79;44.12;99412.66;4361921;32;33764;-70